createdAt,value
2022-12-28T00:02:18.638Z,5.82
2022-12-28T00:04:48.491Z,5.50
2022-12-28T00:07:17.530Z,5.43
2022-12-28T00:09:45.998Z,5.88
2022-12-28T00:12:14.876Z,5.95
2022-12-28T00:14:43.367Z,5.97
2022-12-28T00:17:17.504Z,5.78
2022-12-28T00:19:47.264Z,5.75
2022-12-28T00:22:15.803Z,6.32
2022-12-28T00:24:44.090Z,6.00
2022-12-28T00:27:12.580Z,5.90
2022-12-28T00:29:41.106Z,6.18
2022-12-28T00:32:09.462Z,6.35
2022-12-28T00:34:37.748Z,6.35
2022-12-28T00:37:12.623Z,6.22
2022-12-28T00:39:43.375Z,6.45
2022-12-28T00:42:11.829Z,6.43
2022-12-28T00:44:40.369Z,6.57
2022-12-28T00:47:08.728Z,6.32
2022-12-28T00:49:37.397Z,6.80
2022-12-28T00:52:07.830Z,6.70
2022-12-28T00:54:38.152Z,7.00
2022-12-28T00:57:06.425Z,6.13
2022-12-28T00:59:34.971Z,7.03
2022-12-28T01:02:03.423Z,7.00
2022-12-28T01:04:31.963Z,7.18
2022-12-28T01:07:00.441Z,7.03
2022-12-28T01:09:30.731Z,7.68
2022-12-28T01:11:59.184Z,7.07
2022-12-28T01:14:27.601Z,7.80
2022-12-28T01:16:55.988Z,6.97
2022-12-28T01:19:25.245Z,6.50
2022-12-28T01:21:54.160Z,6.55
2022-12-28T01:24:25.273Z,7.22
2022-12-28T01:26:55.105Z,6.70
2022-12-28T01:29:23.747Z,6.78
2022-12-28T01:31:54.395Z,6.90
2022-12-28T01:34:22.869Z,5.88
2022-12-28T01:36:51.100Z,7.18
2022-12-28T01:39:19.542Z,7.10
2022-12-28T01:41:48.161Z,6.60
2022-12-28T01:44:49.886Z,7.22
2022-12-28T01:47:23.752Z,6.90
2022-12-28T01:50:03.984Z,7.22
2022-12-28T01:52:38.727Z,6.47
2022-12-28T01:55:12.100Z,6.13
2022-12-28T01:57:44.911Z,7.50
2022-12-28T02:00:18.929Z,6.82
2022-12-28T02:02:53.579Z,7.57
2022-12-28T02:05:26.534Z,7.47
2022-12-28T02:08:01.158Z,7.82
2022-12-28T02:10:43.490Z,7.32
2022-12-28T02:13:16.224Z,7.43
2022-12-28T02:15:47.192Z,7.35
2022-12-28T02:18:20.638Z,7.43
2022-12-28T02:21:19.265Z,7.28
2022-12-28T02:24:24.501Z,6.97
2022-12-28T02:27:03.520Z,7.18
2022-12-28T02:30:03.126Z,6.28
2022-12-28T02:32:51.720Z,6.68
2022-12-28T02:35:31.431Z,8.32
2022-12-28T02:38:07.820Z,6.88
2022-12-28T02:40:41.924Z,7.20
2022-12-28T02:43:10.376Z,6.88
2022-12-28T02:46:02.025Z,7.55
2022-12-28T02:49:13.429Z,8.00
2022-12-28T02:51:59.611Z,8.63
2022-12-28T02:55:02.169Z,8.23
2022-12-28T02:57:50.990Z,7.20
2022-12-28T03:00:22.478Z,6.85
2022-12-28T03:03:06.405Z,7.13
2022-12-28T03:06:00.692Z,7.25
2022-12-28T03:08:37.689Z,6.40
2022-12-28T03:11:11.079Z,6.03
2022-12-28T03:13:51.787Z,6.65
2022-12-28T03:16:24.431Z,6.35
2022-12-28T03:19:17.917Z,6.72
2022-12-28T03:22:04.492Z,6.50
2022-12-28T03:24:52.539Z,6.65
2022-12-28T03:27:41.117Z,7.32
2022-12-28T03:30:32.252Z,7.20
2022-12-28T03:33:01.037Z,6.72
2022-12-28T03:35:40.266Z,7.22
2022-12-28T03:38:13.518Z,7.07
2022-12-28T03:40:51.040Z,6.47
2022-12-28T03:43:42.954Z,6.25
2022-12-28T03:46:19.769Z,7.10
2022-12-28T03:48:50.136Z,7.05
2022-12-28T03:51:24.500Z,6.20
2022-12-28T03:53:53.164Z,5.93
2022-12-28T03:56:24.808Z,6.38
2022-12-28T03:58:53.941Z,7.05
2022-12-28T04:01:23.231Z,6.57
2022-12-28T04:03:51.724Z,6.15
2022-12-28T04:06:21.943Z,5.60
2022-12-28T04:08:50.256Z,5.85
2022-12-28T04:11:18.537Z,5.53
2022-12-28T04:13:46.822Z,5.32
2022-12-28T04:16:16.082Z,4.90
2022-12-28T04:18:44.966Z,5.00
2022-12-28T04:21:15.780Z,5.25
2022-12-28T04:23:45.699Z,4.68
2022-12-28T04:26:16.730Z,4.43
2022-12-28T04:28:45.817Z,4.30
2022-12-28T04:31:15.792Z,4.60
2022-12-28T04:33:44.202Z,4.90
2022-12-28T04:36:16.203Z,4.28
2022-12-28T04:38:45.870Z,4.65
2022-12-28T04:41:14.819Z,4.40
2022-12-28T04:43:43.221Z,3.88
2022-12-28T04:46:14.764Z,3.90
2022-12-28T04:48:43.621Z,4.60
2022-12-28T04:51:17.537Z,3.78
2022-12-28T04:53:47.620Z,3.78
2022-12-28T04:56:18.162Z,3.75
2022-12-28T04:58:51.998Z,3.75
2022-12-28T05:01:21.566Z,4.00
2022-12-28T05:03:55.466Z,3.45
2022-12-28T05:06:27.368Z,3.35
2022-12-28T05:08:58.139Z,3.35
2022-12-28T05:11:32.908Z,3.40
2022-12-28T05:14:01.434Z,3.63
2022-12-28T05:16:30.823Z,3.80
2022-12-28T05:18:59.954Z,4.22
2022-12-28T05:21:29.624Z,3.60
2022-12-28T05:24:00.003Z,4.30
2022-12-28T05:26:30.561Z,3.90
2022-12-28T05:28:59.664Z,3.47
2022-12-28T05:31:28.608Z,3.80
2022-12-28T05:33:57.214Z,3.28
2022-12-28T05:36:28.427Z,3.58
2022-12-28T05:38:58.879Z,3.85
2022-12-28T05:41:29.656Z,3.47
2022-12-28T05:44:00.126Z,3.78
2022-12-28T05:46:31.332Z,3.45
2022-12-28T05:49:00.616Z,3.10
2022-12-28T05:51:31.979Z,3.65
2022-12-28T05:54:04.450Z,3.33
2022-12-28T05:56:33.835Z,3.42
2022-12-28T05:59:06.385Z,2.97
2022-12-28T06:01:38.309Z,3.25
2022-12-28T06:04:10.366Z,2.70
2022-12-28T06:06:42.593Z,2.92
2022-12-28T06:09:12.427Z,2.72
2022-12-28T06:11:41.341Z,3.10
2022-12-28T06:14:12.875Z,3.35
2022-12-28T06:16:43.752Z,3.17
2022-12-28T06:19:18.407Z,3.30
2022-12-28T06:21:46.744Z,2.67
2022-12-28T06:24:19.035Z,2.85
2022-12-28T06:26:48.186Z,2.85
2022-12-28T06:29:16.604Z,2.72
2022-12-28T06:31:47.939Z,2.65
2022-12-28T06:34:16.342Z,2.60
2022-12-28T06:36:47.644Z,2.40
2022-12-28T06:39:17.488Z,2.70
2022-12-28T06:41:46.180Z,2.90
2022-12-28T06:44:16.151Z,2.55
2022-12-28T06:46:44.732Z,2.72
2022-12-28T06:49:14.821Z,2.80
2022-12-28T06:51:43.110Z,2.83
2022-12-28T06:54:11.856Z,2.75
2022-12-28T06:56:41.881Z,2.60
2022-12-28T06:59:10.846Z,2.70
2022-12-28T07:01:45.229Z,2.78
2022-12-28T07:04:14.676Z,3.20
2022-12-28T07:06:45.094Z,2.55
2022-12-28T07:09:17.004Z,2.72
2022-12-28T07:11:47.139Z,2.90
2022-12-28T07:14:18.987Z,3.00
2022-12-28T07:16:48.889Z,3.63
2022-12-28T07:19:17.331Z,3.28
2022-12-28T07:21:45.718Z,2.67
2022-12-28T07:24:16.244Z,3.00
2022-12-28T07:26:46.128Z,3.30
2022-12-28T07:29:17.438Z,3.20
2022-12-28T07:31:46.124Z,2.97
2022-12-28T07:34:16.148Z,3.42
2022-12-28T07:36:44.942Z,3.60
2022-12-28T07:39:14.890Z,3.45
2022-12-28T07:41:43.927Z,3.33
2022-12-28T07:44:13.676Z,3.15
2022-12-28T07:46:44.718Z,3.42
2022-12-28T07:49:13.191Z,5.40
2022-12-28T07:51:42.168Z,4.55
2022-12-28T07:54:10.766Z,5.00
2022-12-28T07:59:07.637Z,5.18
2022-12-28T08:01:38.301Z,5.50
2022-12-28T08:04:10.283Z,5.80
2022-12-28T08:06:41.187Z,5.78
2022-12-28T08:09:11.349Z,6.38
2022-12-28T08:11:42.363Z,7.90
2022-12-28T08:14:14.923Z,8.38
2022-12-28T08:16:46.131Z,7.82
2022-12-28T08:19:18.652Z,7.70
2022-12-28T08:21:47.459Z,7.38
2022-12-28T08:24:20.982Z,6.63
2022-12-28T08:26:49.956Z,6.80
2022-12-28T08:29:21.719Z,6.50
2022-12-28T08:31:51.815Z,6.22
2022-12-28T08:34:27.316Z,5.68
2022-12-28T08:36:59.519Z,5.90
2022-12-28T08:39:27.946Z,5.75
2022-12-28T08:41:57.547Z,6.45
2022-12-28T08:44:26.263Z,6.10
2022-12-28T08:46:58.292Z,5.50
2022-12-28T08:49:28.075Z,5.43
2022-12-28T08:51:57.048Z,5.40
2022-12-28T08:54:25.720Z,6.38
2022-12-28T08:56:54.776Z,5.68
2022-12-28T08:59:23.276Z,5.65
2022-12-28T09:01:51.747Z,5.47
2022-12-28T09:04:24.134Z,6.15
2022-12-28T09:06:52.657Z,5.38
2022-12-28T09:09:22.077Z,5.53
2022-12-28T09:11:51.369Z,5.30
2022-12-28T09:14:24.053Z,5.10
2022-12-28T09:16:54.024Z,4.70
2022-12-28T09:19:24.701Z,4.30
2022-12-28T09:21:55.260Z,4.13
2022-12-28T09:24:24.488Z,3.92
2022-12-28T09:26:54.672Z,3.60
2022-12-28T09:29:23.094Z,3.85
2022-12-28T09:31:51.655Z,3.65
2022-12-28T09:34:35.529Z,3.50
2022-12-28T09:37:07.895Z,3.00
2022-12-28T09:39:36.593Z,3.72
2022-12-28T09:42:10.337Z,3.53
2022-12-28T09:44:56.293Z,3.63
2022-12-28T09:47:36.595Z,3.50
2022-12-28T09:50:31.625Z,3.90
2022-12-28T09:53:20.963Z,3.45
2022-12-28T09:56:03.461Z,3.30
2022-12-28T09:58:35.749Z,3.80
2022-12-28T10:01:05.677Z,4.07
2022-12-28T10:03:40.120Z,3.42
2022-12-28T10:06:14.779Z,3.60
2022-12-28T10:08:57.537Z,4.07
2022-12-28T10:11:32.299Z,3.58
2022-12-28T10:14:03.787Z,3.67
2022-12-28T10:16:34.941Z,3.88
2022-12-28T10:19:03.487Z,3.25
2022-12-28T10:21:35.125Z,3.60
2022-12-28T10:27:01.477Z,3.70
2022-12-28T10:29:34.014Z,3.60
2022-12-28T10:32:05.127Z,3.85
2022-12-28T10:34:36.982Z,3.83
2022-12-28T10:37:18.026Z,3.45
2022-12-28T10:39:53.393Z,4.47
2022-12-28T10:42:27.354Z,4.30
2022-12-28T10:45:04.904Z,3.28
2022-12-28T10:47:36.726Z,4.10
2022-12-28T10:50:35.886Z,3.58
2022-12-28T10:52:59.825Z,3.50
2022-12-28T10:55:33.165Z,3.38
2022-12-28T10:58:30.712Z,3.03
2022-12-28T11:01:09.620Z,2.90
2022-12-28T11:03:44.351Z,2.95
2022-12-28T11:06:24.215Z,2.97
2022-12-28T11:09:23.112Z,3.00
2022-12-28T11:11:56.997Z,2.75
2022-12-28T11:14:33.637Z,2.72
2022-12-28T11:17:16.880Z,3.05
2022-12-28T11:19:45.676Z,3.10
2022-12-28T11:22:22.658Z,3.75
2022-12-28T11:24:51.562Z,2.80
2022-12-28T11:27:24.944Z,3.17
2022-12-28T11:29:55.404Z,2.90
2022-12-28T11:32:27.966Z,2.90
2022-12-28T11:34:58.090Z,2.90
2022-12-28T11:37:26.587Z,3.08
2022-12-28T11:39:55.487Z,2.90
2022-12-28T11:43:01.527Z,3.05
2022-12-28T11:45:53.821Z,2.47
2022-12-28T11:48:58.889Z,2.50
2022-12-28T11:51:29.347Z,2.80
2022-12-28T11:54:00.785Z,2.50
2022-12-28T11:56:59.678Z,3.17
2022-12-28T11:59:31.448Z,2.83
2022-12-28T12:02:01.414Z,2.63
2022-12-28T12:04:39.748Z,2.72
2022-12-28T12:07:31.509Z,3.10
2022-12-28T12:10:34.084Z,3.25
2022-12-28T12:13:33.354Z,2.90
2022-12-28T12:16:07.001Z,3.88
2022-12-28T12:18:48.934Z,3.50
2022-12-28T12:21:31.323Z,3.70
2022-12-28T12:24:11.768Z,4.90
2022-12-28T12:26:50.196Z,4.85
2022-12-28T12:29:24.526Z,4.97
2022-12-28T12:32:02.382Z,4.43
2022-12-28T12:34:40.327Z,5.35
2022-12-28T12:37:47.817Z,4.53
2022-12-28T12:40:59.671Z,4.88
2022-12-28T12:43:40.856Z,5.53
2022-12-28T12:47:05.226Z,5.10
2022-12-28T12:49:58.253Z,4.45
2022-12-28T12:52:42.789Z,4.43
2022-12-28T12:55:28.192Z,4.95
2022-12-28T12:58:02.208Z,4.40
2022-12-28T13:00:48.394Z,4.50
2022-12-28T13:03:33.552Z,4.40
2022-12-28T13:06:07.643Z,3.63
2022-12-28T13:08:47.325Z,4.35
2022-12-28T13:11:17.660Z,4.68
2022-12-28T13:13:49.492Z,4.55
2022-12-28T13:16:21.429Z,4.25
2022-12-28T13:18:56.267Z,4.20
2022-12-28T13:21:28.731Z,3.97
2022-12-28T13:23:57.314Z,4.60
2022-12-28T13:26:30.085Z,3.40
2022-12-28T13:29:01.915Z,3.55
2022-12-28T13:31:36.812Z,3.47
2022-12-28T13:34:17.843Z,3.90
2022-12-28T13:37:02.758Z,3.20
2022-12-28T13:39:43.639Z,3.35
2022-12-28T13:42:19.301Z,3.90
2022-12-28T13:44:54.052Z,3.33
2022-12-28T13:47:57.654Z,3.13
2022-12-28T13:50:33.539Z,3.83
2022-12-28T13:53:38.166Z,3.45
2022-12-28T13:56:10.657Z,3.33
2022-12-28T13:58:52.148Z,3.10
2022-12-28T14:01:32.252Z,3.70
2022-12-28T14:07:18.507Z,3.05
2022-12-28T14:09:49.444Z,2.50
2022-12-28T14:12:22.813Z,3.22
2022-12-28T14:14:52.739Z,3.40
2022-12-28T14:17:22.008Z,2.63
2022-12-28T14:19:51.711Z,2.88
2022-12-28T14:22:29.061Z,2.78
2022-12-28T14:25:06.245Z,2.90
2022-12-28T14:27:38.351Z,2.92
2022-12-28T14:30:21.656Z,3.03
2022-12-28T14:32:50.254Z,2.55
2022-12-28T14:35:22.414Z,2.63
2022-12-28T14:37:55.185Z,2.33
2022-12-28T14:40:30.852Z,3.00
2022-12-28T14:43:00.771Z,2.67
2022-12-28T14:46:07.405Z,4.05
2022-12-28T14:48:42.845Z,3.15
2022-12-28T14:51:28.951Z,2.90
2022-12-28T14:54:22.787Z,2.30
2022-12-28T14:56:56.677Z,3.00
2022-12-28T14:59:30.630Z,2.78
2022-12-28T15:01:59.506Z,2.70
2022-12-28T15:04:40.688Z,2.75
2022-12-28T15:07:12.088Z,2.80
2022-12-28T15:09:40.929Z,2.60
2022-12-28T15:12:23.119Z,2.42
2022-12-28T15:14:51.624Z,2.72
2022-12-28T15:17:20.183Z,2.42
2022-12-28T15:19:51.558Z,2.88
2022-12-28T15:22:19.983Z,2.92
2022-12-28T15:24:48.922Z,3.08
2022-12-28T15:27:18.717Z,2.97
2022-12-28T15:30:04.900Z,3.00
2022-12-28T15:32:38.759Z,2.95
2022-12-28T15:35:10.984Z,3.55
2022-12-28T15:37:42.485Z,6.53
2022-12-28T15:40:28.925Z,4.20
2022-12-28T15:42:58.663Z,3.80
2022-12-28T15:45:27.145Z,2.78
2022-12-28T15:47:56.422Z,2.70
2022-12-28T15:50:25.726Z,3.10
2022-12-28T15:52:56.673Z,3.33
2022-12-28T15:55:25.295Z,2.88
2022-12-28T15:57:57.892Z,2.90
2022-12-28T16:00:28.957Z,2.78
2022-12-28T16:02:57.403Z,2.40
2022-12-28T16:05:26.700Z,2.58
2022-12-28T16:07:55.002Z,3.10
2022-12-28T16:10:23.852Z,2.92
2022-12-28T16:12:52.984Z,2.80
2022-12-28T16:15:22.763Z,2.72
2022-12-28T16:17:57.228Z,2.47
2022-12-28T16:20:29.905Z,2.72
2022-12-28T16:22:58.640Z,2.92
2022-12-28T16:25:30.283Z,2.78
2022-12-28T16:27:58.665Z,2.97
2022-12-28T16:30:28.842Z,3.00
2022-12-28T16:32:57.382Z,3.67
2022-12-28T16:35:26.114Z,3.20
2022-12-28T16:37:54.829Z,3.22
2022-12-28T16:40:24.014Z,2.88
2022-12-28T16:42:52.678Z,2.80
2022-12-28T16:45:21.470Z,2.90
2022-12-28T16:47:51.352Z,3.45
2022-12-28T16:50:19.796Z,3.28
2022-12-28T16:52:48.125Z,3.28
2022-12-28T16:55:16.864Z,3.25
2022-12-28T16:57:45.956Z,4.13
2022-12-28T17:00:18.732Z,3.47
2022-12-28T17:02:47.719Z,3.72
2022-12-28T17:05:18.554Z,3.30
2022-12-28T17:07:47.103Z,3.60
2022-12-28T17:10:18.870Z,3.70
2022-12-28T17:12:47.438Z,3.70
2022-12-28T17:15:16.221Z,4.10
2022-12-28T17:17:44.923Z,3.90
2022-12-28T17:20:13.646Z,3.67
2022-12-28T17:22:43.508Z,3.53
2022-12-28T17:25:11.923Z,3.72
2022-12-28T17:27:40.317Z,3.28
2022-12-28T17:30:09.812Z,3.45
2022-12-28T17:32:38.083Z,3.70
2022-12-28T17:35:08.183Z,3.83
2022-12-28T17:37:36.706Z,4.15
2022-12-28T17:40:07.918Z,4.38
2022-12-28T17:42:36.894Z,4.07
2022-12-28T17:45:11.477Z,4.07
2022-12-28T17:47:40.835Z,4.35
2022-12-28T17:50:10.283Z,4.45
2022-12-28T17:52:38.904Z,4.43
2022-12-28T17:55:11.415Z,3.88
2022-12-28T17:57:39.802Z,3.90
2022-12-28T18:00:10.219Z,4.18
2022-12-28T18:02:39.004Z,4.28
2022-12-28T18:05:08.791Z,4.22
2022-12-28T18:07:37.319Z,3.97
2022-12-28T18:10:06.829Z,4.78
2022-12-28T18:12:37.004Z,4.93
2022-12-28T18:15:06.928Z,4.85
2022-12-28T18:17:35.199Z,5.05
2022-12-28T18:20:03.588Z,4.30
2022-12-28T18:22:31.863Z,5.10
2022-12-28T18:25:00.541Z,5.05
2022-12-28T18:27:28.862Z,4.85
2022-12-28T18:29:58.589Z,5.75
2022-12-28T18:32:26.959Z,5.50
2022-12-28T18:34:55.548Z,5.50
2022-12-28T18:37:23.948Z,5.90
2022-12-28T18:39:52.291Z,5.75
2022-12-28T18:42:28.903Z,7.40
2022-12-28T18:44:58.994Z,5.72
2022-12-28T18:47:27.470Z,8.48
2022-12-28T18:49:55.945Z,6.10
2022-12-28T18:52:24.896Z,6.22
2022-12-28T18:54:53.237Z,5.50
2022-12-28T18:57:24.865Z,6.10
2022-12-28T18:59:53.569Z,6.43
2022-12-28T19:02:24.120Z,6.47
2022-12-28T19:04:54.235Z,6.68
2022-12-28T19:07:25.785Z,6.07
2022-12-28T19:10:13.616Z,6.20
2022-12-28T19:12:45.809Z,6.65
2022-12-28T19:15:15.280Z,6.43
2022-12-28T19:17:45.126Z,6.60
2022-12-28T19:20:14.689Z,6.97
2022-12-28T19:22:43.124Z,6.72
2022-12-28T19:25:11.655Z,6.75
2022-12-28T19:27:40.126Z,7.30
2022-12-28T19:30:13.523Z,7.25
2022-12-28T19:32:41.963Z,7.03
2022-12-28T19:35:12.247Z,7.13
2022-12-28T19:37:40.786Z,6.78
2022-12-28T19:40:10.643Z,6.57
2022-12-28T19:42:41.802Z,6.78
2022-12-28T19:45:11.953Z,6.97
2022-12-28T19:47:40.341Z,7.22
2022-12-28T19:50:09.195Z,6.55
2022-12-28T19:52:39.142Z,6.85
2022-12-28T19:55:08.161Z,7.13
2022-12-28T19:57:38.998Z,7.15
2022-12-28T20:00:09.519Z,7.07
2022-12-28T20:02:38.072Z,6.43
2022-12-28T20:05:08.337Z,7.10
2022-12-28T20:07:52.895Z,7.53
2022-12-28T20:10:26.377Z,6.10
2022-12-28T20:12:55.131Z,6.03
2022-12-28T20:15:23.835Z,6.10
2022-12-28T20:17:52.709Z,5.90
2022-12-28T20:20:26.612Z,5.30
2022-12-28T20:22:57.250Z,5.65
2022-12-28T20:25:25.926Z,5.72
2022-12-28T20:27:54.456Z,5.90
2022-12-28T20:30:23.926Z,5.47
2022-12-28T20:32:53.693Z,5.28
2022-12-28T20:35:22.884Z,5.88
2022-12-28T20:37:51.749Z,5.65
2022-12-28T20:40:23.825Z,6.18
2022-12-28T20:43:11.836Z,6.55
2022-12-28T20:45:40.956Z,5.00
2022-12-28T20:48:09.941Z,5.47
2022-12-28T20:50:40.610Z,5.53
2022-12-28T20:53:09.543Z,5.88
2022-12-28T20:55:41.983Z,5.38
2022-12-28T20:58:18.959Z,5.75
2022-12-28T21:00:48.126Z,5.45
2022-12-28T21:03:18.601Z,5.60
2022-12-28T21:05:50.406Z,5.78
2022-12-28T21:08:30.662Z,6.28
2022-12-28T21:11:09.456Z,6.50
2022-12-28T21:13:44.467Z,6.10
2022-12-28T21:16:33.856Z,6.32
2022-12-28T21:19:06.051Z,5.75
2022-12-28T21:21:35.749Z,5.65
2022-12-28T21:24:05.079Z,6.05
2022-12-28T21:26:35.945Z,6.28
2022-12-28T21:29:04.495Z,6.25
2022-12-28T21:31:33.090Z,6.10
2022-12-28T21:34:01.535Z,6.22
2022-12-28T21:36:33.434Z,5.90
2022-12-28T21:39:25.151Z,6.03
2022-12-28T21:41:56.565Z,5.82
2022-12-28T21:44:29.067Z,6.00
2022-12-28T21:46:59.032Z,6.30
2022-12-28T21:49:47.691Z,6.28
2022-12-28T21:52:18.684Z,6.13
2022-12-28T21:54:48.735Z,6.47
2022-12-28T21:57:55.500Z,5.88
2022-12-28T22:00:47.659Z,5.72
2022-12-28T22:03:33.561Z,5.40
2022-12-28T22:06:06.988Z,5.35
2022-12-28T22:09:01.526Z,5.22
2022-12-28T22:11:59.085Z,5.35
2022-12-28T22:14:28.827Z,5.40
2022-12-28T22:16:57.376Z,5.35
2022-12-28T22:19:26.068Z,5.25
2022-12-28T22:21:54.542Z,5.30
2022-12-28T22:24:23.115Z,5.22
2022-12-28T22:26:51.596Z,5.20
2022-12-28T22:29:21.472Z,4.45
2022-12-28T22:31:52.504Z,4.70
2022-12-28T22:34:21.125Z,4.97
2022-12-28T22:36:50.441Z,4.93
2022-12-28T22:39:18.766Z,5.28
2022-12-28T22:41:47.028Z,4.97
2022-12-28T22:44:17.921Z,5.03
2022-12-28T22:46:46.292Z,5.40
2022-12-28T22:49:16.229Z,5.07
2022-12-28T22:51:44.572Z,5.03
2022-12-28T22:54:19.637Z,4.88
2022-12-28T22:56:48.100Z,5.60
2022-12-28T22:59:16.440Z,5.10
2022-12-28T23:01:45.122Z,4.65
2022-12-28T23:04:15.058Z,4.35
2022-12-28T23:06:47.461Z,4.60
2022-12-28T23:09:15.980Z,4.82
2022-12-28T23:11:44.677Z,4.20
2022-12-28T23:14:42.754Z,4.53
2022-12-28T23:17:14.979Z,4.60
2022-12-28T23:20:03.905Z,3.85
2022-12-28T23:22:53.279Z,4.03
2022-12-28T23:25:41.833Z,3.70
2022-12-28T23:28:12.948Z,3.42
2022-12-28T23:30:45.675Z,3.58
2022-12-28T23:33:14.237Z,4.25
2022-12-28T23:35:44.092Z,3.50
2022-12-28T23:38:13.037Z,3.00
2022-12-28T23:40:42.687Z,3.20
2022-12-28T23:43:11.052Z,2.92
2022-12-28T23:45:40.748Z,2.80
2022-12-28T23:48:09.049Z,2.80
2022-12-28T23:50:37.620Z,2.50
2022-12-28T23:53:07.299Z,2.40
2022-12-28T23:55:37.222Z,2.85
2022-12-28T23:58:05.973Z,2.80
